Time;durP1;ratioP1;P1;durP2;ratioP2;P2;SDS_P1;SDS_P2;PMS_P1;PMS_P2;Temp;Humidity;BMP_temperature;BMP_pressure;BME280_temperature;BME280_humidity;BME280_pressure;Samples;Min_cycle;Max_cycle;Signal;HPM_P1;HPM_P2
2021/10/27 00:02:13;;;;;;;23.00;13.85;;;11.30;99.90;;;;;;5069063;28;20024;-51
2021/10/27 00:04:38;;;;;;;18.63;12.68;;;11.30;99.90;;;;;;5068460;28;20032;-53
2021/10/27 00:07:04;;;;;;;18.30;12.18;;;11.30;99.90;;;;;;5068267;28;20028;-52
2021/10/27 00:09:30;;;;;;;17.23;13.18;;;11.30;99.90;;;;;;5068530;28;20526;-53
2021/10/27 00:11:55;;;;;;;17.52;13.60;;;11.40;99.90;;;;;;5068379;28;20027;-52
2021/10/27 00:14:21;;;;;;;16.52;12.77;;;11.40;99.90;;;;;;5068931;28;20107;-52
2021/10/27 00:16:48;;;;;;;14.45;11.18;;;11.40;99.90;;;;;;5068729;28;20024;-53
2021/10/27 00:19:14;;;;;;;19.25;13.52;;;11.40;99.90;;;;;;5068632;28;20036;-55
2021/10/27 00:21:39;;;;;;;15.68;12.82;;;11.40;99.90;;;;;;5069058;28;20504;-52
2021/10/27 00:24:05;;;;;;;17.40;13.15;;;11.40;99.90;;;;;;5067470;28;20056;-50
2021/10/27 00:26:31;;;;;;;18.67;12.88;;;11.50;99.90;;;;;;5068373;28;20551;-51
2021/10/27 00:28:57;;;;;;;19.02;13.05;;;11.50;99.90;;;;;;5068017;28;20086;-52
2021/10/27 00:31:23;;;;;;;16.70;13.75;;;11.50;99.90;;;;;;5064721;28;20024;-52
2021/10/27 00:33:49;;;;;;;22.23;12.98;;;11.50;99.90;;;;;;5068811;28;20550;-52
2021/10/27 00:36:15;;;;;;;20.60;14.32;;;11.50;99.90;;;;;;5067190;28;20060;-52
2021/10/27 00:38:41;;;;;;;20.23;13.82;;;11.50;99.90;;;;;;5068076;28;20396;-53
2021/10/27 00:41:09;;;;;;;17.45;14.60;;;11.50;99.90;;;;;;5085782;28;20026;-52
2021/10/27 00:43:40;;;;;;;21.45;14.70;;;11.60;99.90;;;;;;5068281;28;20024;-52
2021/10/27 00:46:20;;;;;;;23.60;14.63;;;11.60;99.90;;;;;;5066566;28;20711;-52
2021/10/27 00:48:46;;;;;;;19.65;13.73;;;11.60;99.90;;;;;;5067778;28;20025;-51
2021/10/27 00:51:11;;;;;;;22.23;15.38;;;11.50;99.90;;;;;;5067607;28;20075;-54
2021/10/27 00:53:39;;;;;;;21.42;14.95;;;11.60;99.90;;;;;;5066904;28;20040;-52
2021/10/27 00:56:04;;;;;;;22.08;14.60;;;11.60;99.90;;;;;;5068347;28;20036;-52
2021/10/27 00:58:30;;;;;;;20.52;14.32;;;11.60;99.90;;;;;;5065637;28;20033;-52
2021/10/27 01:00:56;;;;;;;22.42;14.00;;;11.60;99.90;;;;;;5065383;28;20044;-52
2021/10/27 01:03:21;;;;;;;16.88;14.25;;;11.60;99.90;;;;;;5065868;28;20033;-53
2021/10/27 01:05:47;;;;;;;19.60;13.02;;;11.60;99.90;;;;;;5091612;22;20025;-53
2021/10/27 01:08:13;;;;;;;20.88;13.80;;;11.60;99.90;;;;;;5066751;28;20679;-49
2021/10/27 01:10:40;;;;;;;16.63;13.73;;;11.60;99.90;;;;;;5081918;28;20024;-54
2021/10/27 01:13:06;;;;;;;20.60;13.75;;;11.60;99.90;;;;;;5083780;28;20017;-53
2021/10/27 01:15:38;;;;;;;23.67;13.23;;;11.60;99.90;;;;;;5068606;28;20400;-54
2021/10/27 01:18:04;;;;;;;23.60;14.77;;;11.60;99.90;;;;;;5047160;28;20064;-51
2021/10/27 01:20:29;;;;;;;20.35;13.85;;;11.60;99.90;;;;;;5047555;28;20668;-51
2021/10/27 01:22:55;;;;;;;20.95;14.70;;;11.60;99.90;;;;;;5049741;28;20103;-53
2021/10/27 01:25:21;;;;;;;20.55;13.77;;;11.60;99.90;;;;;;5048378;28;20068;-54
2021/10/27 01:27:47;;;;;;;26.10;14.55;;;11.70;99.90;;;;;;5060765;28;20382;-51
2021/10/27 01:30:18;;;;;;;24.33;14.88;;;11.60;99.90;;;;;;5047780;28;20021;-52
2021/10/27 01:32:46;;;;;;;22.23;14.25;;;11.70;99.90;;;;;;5048182;28;20496;-52
2021/10/27 01:35:12;;;;;;;23.65;14.98;;;11.70;99.90;;;;;;5060979;28;20115;-52
2021/10/27 01:37:39;;;;;;;19.75;15.18;;;11.70;99.90;;;;;;5069865;28;20046;-56
2021/10/27 01:40:06;;;;;;;22.10;14.63;;;11.70;99.90;;;;;;5070884;28;20619;-52
2021/10/27 01:42:32;;;;;;;21.52;14.20;;;11.70;99.90;;;;;;5050639;28;20040;-55
2021/10/27 01:44:58;;;;;;;18.48;13.23;;;11.70;99.90;;;;;;5051582;28;20481;-54
2021/10/27 01:47:23;;;;;;;22.15;15.40;;;11.70;99.90;;;;;;5059810;28;20564;-53
2021/10/27 01:49:49;;;;;;;22.33;14.43;;;11.70;99.90;;;;;;5061179;28;20103;-58
2021/10/27 01:52:16;;;;;;;20.60;14.43;;;11.70;99.90;;;;;;5069801;28;20025;-55
2021/10/27 01:54:41;;;;;;;20.70;14.88;;;11.70;99.90;;;;;;5053182;28;20044;-55
2021/10/27 01:57:08;;;;;;;23.38;14.77;;;11.80;99.90;;;;;;5058529;28;20032;-56
2021/10/27 01:59:34;;;;;;;18.50;13.52;;;11.80;99.90;;;;;;5069459;28;20037;-54
2021/10/27 02:02:00;;;;;;;21.75;15.40;;;11.80;99.90;;;;;;5050261;28;20104;-55
2021/10/27 02:04:26;;;;;;;27.65;16.15;;;11.80;99.90;;;;;;5051053;28;20116;-55
2021/10/27 02:06:51;;;;;;;21.17;14.77;;;11.80;99.90;;;;;;5050031;28;20090;-55
2021/10/27 02:09:18;;;;;;;24.17;15.50;;;11.80;99.90;;;;;;5051145;28;20116;-53
2021/10/27 02:11:43;;;;;;;24.58;14.38;;;11.80;99.90;;;;;;5041568;28;20032;-53
2021/10/27 02:14:09;;;;;;;23.52;16.20;;;11.90;99.90;;;;;;5051279;28;20108;-56
2021/10/27 02:16:35;;;;;;;19.25;14.60;;;11.90;99.90;;;;;;5049139;28;20029;-54
2021/10/27 02:19:01;;;;;;;21.55;15.20;;;11.90;99.90;;;;;;5030435;28;20117;-51
2021/10/27 02:21:27;;;;;;;20.42;14.80;;;11.90;99.90;;;;;;5034691;28;20031;-51
2021/10/27 02:23:53;;;;;;;26.05;14.30;;;11.90;99.90;;;;;;5047807;28;20029;-56
2021/10/27 02:26:19;;;;;;;24.52;15.07;;;11.90;99.90;;;;;;5049136;28;20028;-54
2021/10/27 02:28:45;;;;;;;24.35;14.50;;;11.90;99.90;;;;;;5050184;28;20493;-53
2021/10/27 02:31:11;;;;;;;22.08;14.65;;;11.90;99.90;;;;;;5050890;28;20028;-54
2021/10/27 02:33:36;;;;;;;23.67;15.27;;;11.90;99.90;;;;;;5050719;28;20037;-55
2021/10/27 02:36:02;;;;;;;24.98;16.13;;;12.00;99.90;;;;;;5034509;28;20030;-57
2021/10/27 02:38:28;;;;;;;20.05;15.85;;;12.00;99.90;;;;;;5031167;28;20115;-57
2021/10/27 02:40:53;;;;;;;22.25;15.60;;;12.00;99.90;;;;;;5056003;28;20037;-52
2021/10/27 02:43:20;;;;;;;22.30;16.13;;;12.00;99.90;;;;;;5030283;28;20029;-57
2021/10/27 02:45:46;;;;;;;23.48;16.13;;;12.00;99.90;;;;;;5058332;28;20038;-57
2021/10/27 02:48:12;;;;;;;20.83;16.58;;;12.00;99.90;;;;;;5049130;28;20025;-55
2021/10/27 02:50:39;;;;;;;19.75;15.80;;;12.00;99.90;;;;;;5050259;28;20031;-53
2021/10/27 02:53:05;;;;;;;21.02;14.57;;;12.00;99.90;;;;;;5049259;28;20032;-54
2021/10/27 02:55:31;;;;;;;26.20;15.45;;;12.00;99.90;;;;;;5035629;28;20400;-57
2021/10/27 02:57:59;;;;;;;23.67;15.18;;;12.00;99.90;;;;;;5049727;28;20090;-57
2021/10/27 03:00:25;;;;;;;24.73;15.40;;;12.00;99.90;;;;;;5037069;28;20493;-52
2021/10/27 03:02:50;;;;;;;21.23;15.32;;;12.00;99.90;;;;;;5049303;28;20029;-54
2021/10/27 03:05:16;;;;;;;20.70;14.68;;;12.00;99.90;;;;;;5050043;28;20131;-53
2021/10/27 03:07:42;;;;;;;21.10;16.10;;;12.00;99.90;;;;;;5050040;28;20029;-54
2021/10/27 03:10:08;;;;;;;23.95;17.27;;;12.00;99.90;;;;;;5056688;28;20400;-52
2021/10/27 03:12:34;;;;;;;22.00;16.95;;;12.00;99.90;;;;;;5069952;28;20534;-50
2021/10/27 03:14:59;;;;;;;21.67;16.58;;;12.10;99.90;;;;;;5068256;28;20514;-57
2021/10/27 03:17:25;;;;;;;25.83;16.95;;;12.10;99.90;;;;;;5060191;28;20043;-53
2021/10/27 03:19:51;;;;;;;24.90;16.65;;;12.10;99.90;;;;;;5067742;28;20024;-51
2021/10/27 03:22:17;;;;;;;24.67;16.48;;;12.10;99.90;;;;;;5069960;28;20028;-52
2021/10/27 03:24:43;;;;;;;20.50;14.90;;;12.10;99.90;;;;;;5068190;28;20050;-52
2021/10/27 03:27:08;;;;;;;21.27;16.25;;;12.10;99.90;;;;;;5069620;28;20707;-52
2021/10/27 03:29:34;;;;;;;26.05;17.50;;;12.10;99.90;;;;;;5069706;28;20029;-56
2021/10/27 03:32:01;;;;;;;23.20;16.80;;;12.10;99.90;;;;;;5067695;28;20113;-53
2021/10/27 03:34:26;;;;;;;24.80;16.63;;;12.10;99.90;;;;;;5068713;28;20039;-54
2021/10/27 03:36:53;;;;;;;23.58;16.92;;;12.10;99.90;;;;;;5052719;28;20561;-53
2021/10/27 03:39:19;;;;;;;24.02;17.77;;;12.10;99.90;;;;;;5069380;28;20024;-51
2021/10/27 03:41:46;;;;;;;29.40;17.98;;;12.10;99.90;;;;;;5051008;28;20493;-51
2021/10/27 03:44:12;;;;;;;24.45;17.50;;;12.10;99.90;;;;;;5047773;28;20021;-56
2021/10/27 03:46:37;;;;;;;23.40;17.00;;;12.10;99.90;;;;;;5060217;28;20037;-51
2021/10/27 03:49:03;;;;;;;22.67;16.33;;;12.10;99.90;;;;;;5068327;28;20536;-54
2021/10/27 03:51:30;;;;;;;21.88;17.23;;;12.10;99.90;;;;;;5057831;28;20025;-53
2021/10/27 03:53:55;;;;;;;25.23;16.42;;;12.20;99.90;;;;;;5063064;28;20056;-53
2021/10/27 03:56:21;;;;;;;25.02;16.63;;;12.10;99.90;;;;;;5060599;28;20102;-54
2021/10/27 03:58:46;;;;;;;27.88;17.70;;;12.10;99.90;;;;;;5047808;28;20078;-57
2021/10/27 04:01:12;;;;;;;25.83;17.42;;;12.20;99.90;;;;;;5049396;28;20517;-55
2021/10/27 04:03:38;;;;;;;24.40;17.30;;;12.20;99.90;;;;;;5056167;28;20076;-56
2021/10/27 04:06:04;;;;;;;29.02;18.85;;;12.20;99.90;;;;;;5049702;28;20029;-57
2021/10/27 04:08:30;;;;;;;27.98;16.90;;;12.20;99.90;;;;;;5050894;28;20021;-54
2021/10/27 04:10:56;;;;;;;23.27;18.25;;;12.20;99.90;;;;;;5067468;28;20017;-57
2021/10/27 04:13:21;;;;;;;25.40;18.08;;;12.20;99.90;;;;;;5068694;28;20024;-53
2021/10/27 04:15:47;;;;;;;27.52;17.90;;;12.20;99.90;;;;;;5067183;28;20055;-55
2021/10/27 04:18:13;;;;;;;26.67;17.52;;;12.20;99.90;;;;;;5068043;28;20048;-53
2021/10/27 04:20:39;;;;;;;25.88;17.52;;;12.20;99.90;;;;;;5067797;28;20054;-51
2021/10/27 04:23:05;;;;;;;27.00;17.38;;;12.20;99.90;;;;;;5068927;28;20074;-52
2021/10/27 04:25:31;;;;;;;23.13;17.33;;;12.20;99.90;;;;;;5054532;28;20033;-54
2021/10/27 04:27:57;;;;;;;29.08;16.60;;;12.20;99.90;;;;;;5048667;28;20116;-53
2021/10/27 04:30:23;;;;;;;26.38;16.95;;;12.30;99.90;;;;;;5049354;28;20465;-51
2021/10/27 04:32:48;;;;;;;27.83;16.95;;;12.30;99.90;;;;;;5049084;28;20051;-52
2021/10/27 04:35:15;;;;;;;27.15;17.10;;;12.30;99.90;;;;;;5045814;28;20028;-54
2021/10/27 04:37:44;;;;;;;30.77;18.10;;;12.30;99.90;;;;;;5048660;28;20078;-49
2021/10/27 04:40:12;;;;;;;27.98;18.35;;;12.30;99.90;;;;;;5056591;28;20060;-53
2021/10/27 04:42:38;;;;;;;27.73;17.60;;;12.30;99.90;;;;;;5066803;28;20396;-52
2021/10/27 04:45:05;;;;;;;25.02;17.42;;;12.30;99.90;;;;;;5066694;28;20032;-56
2021/10/27 04:47:31;;;;;;;26.98;17.88;;;12.30;99.90;;;;;;5057485;28;20048;-51
2021/10/27 04:49:57;;;;;;;24.48;16.58;;;12.30;99.90;;;;;;5048335;28;20563;-52
2021/10/27 04:52:24;;;;;;;26.50;19.20;;;12.30;99.90;;;;;;5049714;28;20013;-53
2021/10/27 04:54:50;;;;;;;23.50;17.08;;;12.30;99.90;;;;;;5067116;28;20132;-52
2021/10/27 04:57:15;;;;;;;28.83;17.65;;;12.30;99.90;;;;;;5063244;28;20511;-54
2021/10/27 04:59:44;;;;;;;30.52;17.55;;;12.30;99.90;;;;;;5067768;28;20032;-52
2021/10/27 05:02:11;;;;;;;25.90;16.08;;;12.30;99.90;;;;;;5054497;28;20036;-52
2021/10/27 05:04:37;;;;;;;26.38;16.92;;;12.30;99.90;;;;;;5048819;28;20029;-51
2021/10/27 05:07:03;;;;;;;29.27;18.02;;;12.30;99.90;;;;;;5050231;28;20025;-53
2021/10/27 05:09:30;;;;;;;27.30;17.70;;;12.30;99.90;;;;;;5058995;28;20115;-53
2021/10/27 05:11:55;;;;;;;23.50;18.48;;;12.30;99.90;;;;;;5057843;28;20110;-54
2021/10/27 05:14:21;;;;;;;29.50;18.45;;;12.30;99.90;;;;;;5048066;28;20041;-55
2021/10/27 05:16:46;;;;;;;27.55;18.10;;;12.30;99.90;;;;;;5047878;28;20489;-53
2021/10/27 05:19:12;;;;;;;30.10;18.05;;;12.30;99.90;;;;;;5046977;28;20025;-52
2021/10/27 05:21:38;;;;;;;26.02;17.20;;;12.30;99.90;;;;;;5048077;28;20058;-52
2021/10/27 05:24:04;;;;;;;24.15;16.75;;;12.30;99.90;;;;;;5047840;28;20059;-56
2021/10/27 05:26:30;;;;;;;27.20;18.88;;;12.30;99.90;;;;;;5048881;28;20033;-53
2021/10/27 05:28:55;;;;;;;25.35;17.95;;;12.30;99.90;;;;;;5048091;28;20402;-54
2021/10/27 05:31:21;;;;;;;26.05;18.88;;;12.30;99.90;;;;;;5047572;28;20520;-52
2021/10/27 05:33:46;;;;;;;29.45;18.02;;;12.30;99.90;;;;;;5061892;28;20103;-53
2021/10/27 05:36:13;;;;;;;30.38;19.00;;;12.30;99.90;;;;;;5067450;28;20040;-55
2021/10/27 05:38:38;;;;;;;25.92;17.65;;;12.30;99.90;;;;;;5067875;28;20119;-55
2021/10/27 05:41:05;;;;;;;23.55;17.27;;;12.40;99.90;;;;;;5060402;28;20109;-56
2021/10/27 05:43:32;;;;;;;21.52;16.55;;;12.40;99.90;;;;;;5061796;28;20039;-54
2021/10/27 05:45:58;;;;;;;26.98;18.08;;;12.40;99.90;;;;;;5065749;28;20230;-52
2021/10/27 05:48:29;;;;;;;21.42;15.85;;;12.40;99.90;;;;;;5051065;28;20607;-54
2021/10/27 05:51:12;;;;;;;23.50;16.98;;;12.40;99.90;;;;;;5045864;28;20561;-53
2021/10/27 05:56:22;;;;;;;23.50;17.23;;;12.40;99.90;;;;;;5061648;28;20119;-54
2021/10/27 05:58:48;;;;;;;24.30;18.08;;;12.40;99.90;;;;;;5055428;28;20017;-54
2021/10/27 06:01:14;;;;;;;25.65;18.73;;;12.40;99.90;;;;;;5061457;28;20031;-53
2021/10/27 06:03:40;;;;;;;28.08;17.17;;;12.40;99.90;;;;;;5047626;28;20078;-51
2021/10/27 06:06:06;;;;;;;26.70;16.88;;;12.40;99.90;;;;;;5058283;28;20025;-53
2021/10/27 06:08:33;;;;;;;26.80;16.83;;;12.40;99.90;;;;;;5053561;28;20017;-54
2021/10/27 06:11:06;;;;;;;21.08;17.02;;;12.40;99.90;;;;;;5042212;28;20044;-55
2021/10/27 06:13:35;;;;;;;23.70;16.15;;;12.40;99.90;;;;;;5060699;28;20017;-55
2021/10/27 06:16:02;;;;;;;25.20;17.45;;;12.40;99.90;;;;;;5047525;28;20028;-52
2021/10/27 06:18:28;;;;;;;23.92;17.05;;;12.40;99.90;;;;;;5059249;28;20515;-53
2021/10/27 06:20:54;;;;;;;25.80;17.50;;;12.40;99.90;;;;;;5064757;28;20039;-54
2021/10/27 06:23:20;;;;;;;24.52;15.90;;;12.40;99.90;;;;;;5069041;28;20037;-59
2021/10/27 06:25:48;;;;;;;23.63;17.15;;;12.40;99.90;;;;;;5067404;28;20420;-55
2021/10/27 06:28:17;;;;;;;27.35;16.80;;;12.40;99.90;;;;;;5063384;28;20108;-55
2021/10/27 06:35:45;;;;;;;25.35;17.58;;;12.40;99.90;;;;;;5050319;28;20060;-57
2021/10/27 06:48:54;;;;;;;24.52;16.17;;;12.40;99.90;;;;;;5066985;28;20035;-55
2021/10/27 06:51:21;;;;;;;24.98;15.40;;;12.40;99.90;;;;;;5070270;28;20021;-55
2021/10/27 06:53:47;;;;;;;19.52;14.75;;;12.50;99.90;;;;;;5054812;28;20495;-57
2021/10/27 06:56:12;;;;;;;23.40;15.80;;;12.50;99.90;;;;;;5049124;28;20048;-56
2021/10/27 06:58:51;;;;;;;20.17;14.18;;;12.50;99.90;;;;;;5050273;28;20118;-53
2021/10/27 07:07:00;;;;;;;23.35;16.52;;;12.50;99.90;;;;;;5077462;22;20414;-51
2021/10/27 07:15:00;;;;;;;25.10;16.08;;;12.50;99.90;;;;;;5075632;28;20636;-51
2021/10/27 07:17:26;;;;;;;20.40;15.63;;;12.50;99.90;;;;;;5086701;28;20082;-52
2021/10/27 07:19:52;;;;;;;25.85;16.02;;;12.60;99.90;;;;;;5089943;28;20028;-49
2021/10/27 07:22:18;;;;;;;26.30;16.35;;;12.60;99.90;;;;;;5090304;28;20023;-53
2021/10/27 07:24:44;;;;;;;25.67;16.65;;;12.60;99.90;;;;;;5089787;28;20020;-52
2021/10/27 07:27:11;;;;;;;24.65;16.13;;;12.60;99.90;;;;;;5088591;28;20068;-53
2021/10/27 07:29:38;;;;;;;23.40;16.83;;;12.60;99.90;;;;;;5089755;28;20460;-50
2021/10/27 07:32:07;;;;;;;23.58;15.32;;;12.60;99.90;;;;;;5089868;28;20423;-52
2021/10/27 07:34:36;;;;;;;21.30;16.02;;;12.60;99.90;;;;;;5089502;28;20024;-52
2021/10/27 07:42:30;;;;;;;22.20;16.38;;;12.60;99.90;;;;;;5090136;28;20038;-53
2021/10/27 07:44:55;;;;;;;28.45;18.27;;;12.60;99.90;;;;;;5089552;28;20059;-55
2021/10/27 07:47:21;;;;;;;23.85;17.00;;;12.60;99.90;;;;;;5089594;28;20074;-51
2021/10/27 07:49:50;;;;;;;25.67;16.50;;;12.60;99.90;;;;;;5089649;28;20025;-51
2021/10/27 07:52:16;;;;;;;21.50;15.77;;;12.70;99.90;;;;;;5089334;28;20042;-51
2021/10/27 07:54:41;;;;;;;22.33;16.67;;;12.70;99.90;;;;;;5089623;28;20032;-53
2021/10/27 07:57:07;;;;;;;24.35;16.27;;;12.70;99.90;;;;;;5085000;28;20748;-52
2021/10/27 07:59:33;;;;;;;21.20;16.02;;;12.70;99.90;;;;;;5069136;28;20024;-51
2021/10/27 08:02:06;;;;;;;20.08;14.77;;;12.80;99.90;;;;;;5069745;28;20035;-51
2021/10/27 08:04:42;;;;;;;21.00;15.70;;;12.80;99.90;;;;;;5066915;28;20028;-53
2021/10/27 08:07:08;;;;;;;25.08;15.75;;;12.80;99.90;;;;;;5067673;28;20025;-49
2021/10/27 08:09:35;;;;;;;20.85;16.33;;;12.80;99.90;;;;;;5076098;28;20452;-51
2021/10/27 08:12:00;;;;;;;23.23;16.02;;;12.80;99.90;;;;;;5089089;28;20054;-51
2021/10/27 08:14:26;;;;;;;21.08;15.00;;;12.80;99.90;;;;;;5088846;28;20472;-52
2021/10/27 08:16:51;;;;;;;24.77;15.73;;;12.80;99.90;;;;;;5085437;28;20031;-52
2021/10/27 08:19:18;;;;;;;22.30;15.77;;;12.80;99.90;;;;;;5088623;28;20055;-51
2021/10/27 08:21:44;;;;;;;19.08;15.10;;;12.80;99.90;;;;;;5088945;28;20433;-52
2021/10/27 08:24:12;;;;;;;24.33;14.82;;;12.80;99.90;;;;;;5088986;28;20030;-53
2021/10/27 08:26:46;;;;;;;19.70;15.07;;;12.80;99.90;;;;;;5088518;28;20098;-52
2021/10/27 08:29:13;;;;;;;24.50;15.27;;;12.80;99.90;;;;;;5087742;28;20096;-55
2021/10/27 08:34:20;;;;;;;22.08;16.48;;;12.90;99.90;;;;;;5088011;28;20024;-51
2021/10/27 08:36:47;;;;;;;21.77;15.85;;;12.90;99.90;;;;;;5085986;28;20028;-51
2021/10/27 08:39:14;;;;;;;24.95;17.25;;;13.00;99.90;;;;;;5088494;28;20023;-55
2021/10/27 08:41:40;;;;;;;21.30;15.82;;;12.90;99.90;;;;;;5076359;28;20028;-50
2021/10/27 08:44:06;;;;;;;21.23;15.77;;;12.90;99.90;;;;;;5067687;28;20024;-51
2021/10/27 08:46:35;;;;;;;17.42;14.27;;;13.00;99.90;;;;;;5073710;28;20040;-52
2021/10/27 08:49:04;;;;;;;21.73;15.60;;;13.00;99.90;;;;;;5087528;28;20394;-52
2021/10/27 08:51:31;;;;;;;23.15;15.57;;;13.00;99.90;;;;;;5077711;28;20469;-51
2021/10/27 08:53:57;;;;;;;25.05;15.18;;;13.00;99.90;;;;;;5068226;28;20033;-55
2021/10/27 08:56:24;;;;;;;17.52;14.90;;;13.00;99.90;;;;;;5068153;28;20591;-52
2021/10/27 08:58:56;;;;;;;21.65;14.98;;;13.00;99.90;;;;;;5067806;28;20086;-52
2021/10/27 09:01:40;;;;;;;19.90;15.20;;;13.10;99.90;;;;;;5066529;28;20024;-51
2021/10/27 09:04:33;;;;;;;21.70;15.25;;;13.10;99.90;;;;;;5066194;28;20059;-54
2021/10/27 09:07:30;;;;;;;20.17;14.38;;;13.10;99.90;;;;;;5066353;28;20649;-54
2021/10/27 10:06:25;;;;;;;18.35;12.93;;;13.30;99.90;;;;;;5051959;28;20032;-52
2021/10/27 10:08:52;;;;;;;15.32;12.00;;;13.30;99.90;;;;;;5060735;28;20146;-51
2021/10/27 10:11:22;;;;;;;16.42;11.98;;;13.30;99.90;;;;;;5070963;28;20016;-50
2021/10/27 10:13:54;;;;;;;18.77;11.73;;;13.40;99.90;;;;;;5071115;28;20409;-51
2021/10/27 10:16:19;;;;;;;17.42;12.70;;;13.40;99.90;;;;;;5070880;28;20166;-48
2021/10/27 10:18:46;;;;;;;16.63;12.50;;;13.40;99.90;;;;;;5070700;28;20115;-51
2021/10/27 10:21:22;;;;;;;18.27;12.52;;;13.40;99.90;;;;;;5071156;28;20036;-50
2021/10/27 10:23:48;;;;;;;16.00;12.48;;;13.50;99.90;;;;;;5070844;28;20056;-49
2021/10/27 10:26:29;;;;;;;14.80;12.27;;;13.50;99.90;;;;;;5070535;28;20025;-52
2021/10/27 10:28:54;;;;;;;12.75;11.43;;;13.50;99.90;;;;;;5070728;28;20033;-51
2021/10/27 10:31:31;;;;;;;16.58;12.27;;;13.50;99.90;;;;;;5070497;28;20479;-52
2021/10/27 10:34:01;;;;;;;16.27;12.15;;;13.60;99.90;;;;;;5070508;28;20032;-56
2021/10/27 10:36:36;;;;;;;13.73;11.07;;;13.60;99.90;;;;;;5071063;28;20024;-53
2021/10/27 10:41:55;;;;;;;13.38;11.00;;;13.70;99.90;;;;;;5071124;28;20033;-51
2021/10/27 10:45:06;;;;;;;12.98;11.05;;;13.70;99.90;;;;;;5070925;28;20097;-50
2021/10/27 11:40:13;;;;;;;14.25;12.25;;;14.10;99.90;;;;;;5089574;28;20073;-51
2021/10/27 11:42:52;;;;;;;14.05;12.05;;;14.10;99.90;;;;;;5089852;28;20507;-52
2021/10/27 11:48:06;;;;;;;17.67;11.57;;;14.10;99.90;;;;;;5089590;28;20655;-51
2021/10/27 11:50:35;;;;;;;12.85;10.73;;;14.10;99.90;;;;;;5087948;28;20495;-51
2021/10/27 11:53:04;;;;;;;13.05;10.70;;;14.20;99.90;;;;;;5089686;28;20032;-52
2021/10/27 11:55:33;;;;;;;14.95;11.65;;;14.20;99.90;;;;;;5089603;28;20020;-54
2021/10/27 11:57:59;;;;;;;13.13;11.55;;;14.20;99.90;;;;;;5088856;28;20031;-50
2021/10/27 12:00:40;;;;;;;13.77;11.23;;;14.20;99.90;;;;;;5077973;28;20373;-54
2021/10/27 12:03:13;;;;;;;15.13;11.00;;;14.20;99.90;;;;;;5069286;28;20600;-52
2021/10/27 12:05:47;;;;;;;14.52;11.50;;;14.20;99.90;;;;;;5068398;28;20086;-54
2021/10/27 12:13:53;;;;;;;15.07;11.05;;;14.20;99.90;;;;;;5069476;28;20123;-53
2021/10/27 12:19:23;;;;;;;14.30;11.45;;;14.20;99.90;;;;;;5068184;28;20507;-54
2021/10/27 12:21:51;;;;;;;15.38;12.73;;;14.20;99.90;;;;;;5072900;28;20020;-54
2021/10/27 12:24:26;;;;;;;16.98;13.75;;;14.20;99.90;;;;;;5067360;28;20051;-55
2021/10/27 12:27:06;;;;;;;14.18;12.48;;;14.20;99.90;;;;;;5068533;28;20026;-53
2021/10/27 12:29:34;;;;;;;12.63;11.43;;;14.10;99.90;;;;;;5068026;28;20020;-53
2021/10/27 12:32:15;;;;;;;14.80;11.85;;;14.10;99.90;;;;;;5069457;28;20465;-51
2021/10/27 12:35:08;;;;;;;15.75;12.73;;;14.10;99.90;;;;;;5088587;28;20480;-53
2021/10/27 12:40:28;;;;;;;13.13;11.65;;;14.10;99.90;;;;;;5071181;28;20104;-52
2021/10/27 12:43:03;;;;;;;13.80;11.52;;;14.10;99.90;;;;;;5076038;28;20046;-52
2021/10/27 12:45:51;;;;;;;13.07;11.73;;;14.00;99.90;;;;;;5087738;28;20024;-53
2021/10/27 12:48:20;;;;;;;13.65;10.82;;;14.10;99.90;;;;;;5066572;28;20033;-54
2021/10/27 12:50:51;;;;;;;14.68;12.07;;;14.10;99.90;;;;;;5067888;28;20490;-53
2021/10/27 12:53:50;;;;;;;13.20;11.75;;;14.10;99.90;;;;;;5088191;28;20121;-53
2021/10/27 12:56:22;;;;;;;14.70;12.18;;;14.10;99.90;;;;;;5087615;28;20020;-53
2021/10/27 12:58:54;;;;;;;16.13;11.98;;;14.00;99.90;;;;;;5082065;28;20047;-51
2021/10/27 13:04:34;;;;;;;;;;;14.00;99.90;;;;;;5072877;28;20153;-51
2021/10/27 13:07:08;;;;;;;13.00;11.50;;;14.00;99.90;;;;;;5088281;28;19916;-52
2021/10/27 13:15:07;;;;;;;16.55;11.77;;;13.90;99.90;;;;;;5083209;28;20027;-56
2021/10/27 13:23:10;;;;;;;15.27;11.60;;;13.80;99.90;;;;;;5088422;28;20112;-53
2021/10/27 13:30:58;;;;;;;15.25;12.20;;;13.80;99.90;;;;;;5047482;28;20024;-51
2021/10/27 13:33:24;;;;;;;12.88;11.57;;;13.80;99.90;;;;;;5077852;28;20035;-52
2021/10/27 13:35:51;;;;;;;14.07;10.93;;;13.80;99.90;;;;;;5092098;28;20024;-51
2021/10/27 13:38:18;;;;;;;16.77;11.02;;;13.80;99.90;;;;;;5090188;28;20043;-55
2021/10/27 13:40:45;;;;;;;10.98;9.98;;;13.80;99.90;;;;;;5088770;28;20020;-51
2021/10/27 13:43:31;;;;;;;12.63;11.23;;;13.80;99.90;;;;;;5092372;28;20062;-54
2021/10/27 14:06:49;;;;;;;13.93;12.23;;;13.80;99.90;;;;;;5071587;28;20506;-55
2021/10/27 14:09:29;;;;;;;12.88;10.57;;;13.80;99.90;;;;;;5050809;28;20041;-55
2021/10/27 14:17:13;;;;;;;15.98;11.00;;;13.90;99.90;;;;;;5070564;28;20025;-51
2021/10/27 15:19:39;;;;;;;17.60;12.93;;;13.80;99.90;;;;;;5046476;28;20039;-56
2021/10/27 15:25:09;;;;;;;11.00;9.07;;;13.80;99.90;;;;;;5070344;28;20031;-54
2021/10/27 15:28:00;;;;;;;10.07;6.80;;;13.80;99.90;;;;;;5058174;28;20534;-54
2021/10/27 15:36:10;;;;;;;10.45;5.78;;;13.70;99.90;;;;;;5089951;28;20027;-55
2021/10/27 15:41:37;;;;;;;10.73;5.32;;;13.70;99.90;;;;;;5062248;28;20047;-54
2021/10/27 15:52:00;;;;;;;8.05;5.32;;;13.60;99.90;;;;;;5069934;28;20032;-54
2021/10/27 15:54:26;;;;;;;6.68;4.65;;;13.70;99.90;;;;;;5089607;28;20016;-53
2021/10/27 15:56:51;;;;;;;7.07;4.28;;;13.70;99.90;;;;;;5076530;28;20020;-52
2021/10/27 15:59:18;;;;;;;7.18;4.20;;;13.60;99.90;;;;;;5081005;28;20016;-50
2021/10/27 16:01:45;;;;;;;10.20;5.25;;;13.60;99.90;;;;;;5089276;28;20039;-53
2021/10/27 16:04:10;;;;;;;9.52;4.88;;;13.60;99.90;;;;;;5068898;28;20033;-52
2021/10/27 16:06:49;;;;;;;6.10;4.10;;;13.60;99.90;;;;;;5069129;28;20028;-53
2021/10/27 16:09:16;;;;;;;8.48;3.97;;;13.60;99.90;;;;;;5063750;28;20047;-52
2021/10/27 16:11:42;;;;;;;6.80;3.90;;;13.60;99.90;;;;;;5068662;28;20602;-52
2021/10/27 16:14:08;;;;;;;5.05;3.53;;;13.60;99.90;;;;;;5085681;28;20111;-52
2021/10/27 16:16:34;;;;;;;6.20;3.90;;;13.60;99.90;;;;;;5085366;28;20123;-51
2021/10/27 16:19:00;;;;;;;5.78;3.80;;;13.60;99.90;;;;;;5067151;28;20497;-53
2021/10/27 16:21:27;;;;;;;5.03;3.17;;;13.50;99.90;;;;;;5068613;28;20039;-56
2021/10/27 16:23:52;;;;;;;6.28;3.35;;;13.50;99.90;;;;;;5047596;28;20024;-50
2021/10/27 16:26:21;;;;;;;5.13;3.70;;;13.50;99.90;;;;;;5061742;28;20111;-50
2021/10/27 16:28:46;;;;;;;8.45;4.40;;;13.50;99.90;;;;;;5068623;28;20111;-52
2021/10/27 16:31:12;;;;;;;6.22;3.25;;;13.50;99.90;;;;;;5067195;28;20103;-50
2021/10/27 16:33:38;;;;;;;6.40;3.40;;;13.50;99.90;;;;;;5068579;28;20117;-55
2021/10/27 16:36:04;;;;;;;6.53;3.08;;;13.50;99.90;;;;;;5065970;28;20056;-53
2021/10/27 16:38:30;;;;;;;5.00;3.80;;;13.50;99.90;;;;;;5077610;28;20504;-54
2021/10/27 16:40:55;;;;;;;8.35;3.70;;;13.50;99.90;;;;;;5088990;28;20032;-51
2021/10/27 16:43:22;;;;;;;6.53;3.33;;;13.50;99.90;;;;;;5088400;28;20039;-52
2021/10/27 16:45:49;;;;;;;7.55;3.65;;;13.60;99.90;;;;;;5088376;28;20251;-53
2021/10/27 16:48:14;;;;;;;6.65;4.00;;;13.60;99.90;;;;;;5086737;28;20028;-53
2021/10/27 16:50:40;;;;;;;5.25;3.08;;;13.50;99.90;;;;;;5088494;28;20099;-51
2021/10/27 16:53:05;;;;;;;7.90;3.15;;;13.50;99.90;;;;;;5087057;28;20036;-58
2021/10/27 16:55:31;;;;;;;6.35;4.30;;;13.50;99.90;;;;;;5085312;28;20052;-53
2021/10/27 16:57:58;;;;;;;7.07;3.25;;;13.50;99.90;;;;;;5066444;28;20496;-55
2021/10/27 17:00:27;;;;;;;7.47;3.78;;;13.50;99.90;;;;;;5068772;28;20029;-56
2021/10/27 17:02:52;;;;;;;8.13;3.45;;;13.50;99.90;;;;;;5066485;28;20033;-54
2021/10/27 17:05:18;;;;;;;6.07;3.50;;;13.50;99.90;;;;;;5066756;28;20037;-52
2021/10/27 17:07:44;;;;;;;4.80;3.80;;;13.60;99.90;;;;;;5065081;28;20013;-52
2021/10/27 17:10:12;;;;;;;8.48;3.92;;;13.50;99.90;;;;;;5067254;28;20057;-54
2021/10/27 17:12:38;;;;;;;4.80;3.88;;;13.50;99.90;;;;;;5068286;28;20028;-56
2021/10/27 17:15:06;;;;;;;6.95;3.42;;;13.50;99.90;;;;;;5068181;28;20033;-53
2021/10/27 17:17:32;;;;;;;7.00;4.40;;;13.50;99.90;;;;;;5066400;28;20855;-54
2021/10/27 17:19:58;;;;;;;6.80;3.50;;;13.50;99.90;;;;;;5067545;28;20446;-54
2021/10/27 17:22:29;;;;;;;4.65;3.60;;;13.50;99.90;;;;;;5068279;28;20583;-56
2021/10/27 17:24:55;;;;;;;5.60;3.90;;;13.50;99.90;;;;;;5067422;28;20166;-55